• Join FlightAware (Why Join?)
  • Login
  • US Flag 
09:02PM EST


 

Airport Tracker/Info


-or-


 

Live Flight TrackerFlight Track Log ✈ UAL6044 ✈ 18-Apr-2013 ✈ KIAD - KIND

Flight Track Log - Related Links

Times and Time Zones

All times are in EDT time to prevent confusion due to time zone crossing. See the UAL6044 flight status page for this flight to view local times or setup timezone preferences in your user account.

Time Position Orientation Groundspeed Altitude Reporting Facility
EDT Latitude Longitude Course Direction KTS MPH feet Rate Location/Type
01:38PM 38.9500 -77.5000 234° Southwest 181 208 1,500  Level Potomac TRACON
01:39PM 38.9667 -77.5833 284° West 253 291 3,400 1,980 Climbing Potomac TRACON
01:39PM 38.9711 -77.6289 277° West 249 287 5,000 2,460 Climbing Washington Center
01:40PM 38.9000 -77.6536 195° South 238 274 7,700 2,400 Climbing Washington Center
01:41PM 38.5549 -77.6755 210° Southwest  Level FlightAware Approximate
01:41PM 38.8414 -77.6678 191° South 262 302 9,800  Level Washington Center
01:42PM 38.4814 -77.7612 230° Southwest  Level FlightAware Approximate
01:42PM 38.7556 -77.6814 187° South 330 380 10,000  Level Washington Center
01:43PM 38.4180 -77.8685 234° Southwest  Level FlightAware Approximate
01:43PM 38.6508 -77.7050 190° South 355 409 11,500  Level Washington Center
01:44PM 38.5631 -77.7211 188° South 370 426 13,400 1,920 Climbing Washington Center
01:45PM 38.4808 -77.7744 207° Southwest 362 417 15,400 1,920 Climbing Washington Center
01:46PM 38.4289 -77.8789 238° Southwest 334 384 17,300 1,380 Climbing Washington Center
01:47PM 38.3747 -77.9833 237° Southwest 341 392 18,200 900 Climbing Washington Center
01:48PM 38.3533 -78.1044 257° West 347 399 19,200 900 Climbing Washington Center
01:49PM 38.3544 -78.2447 271° West 369 425 20,000 360 Climbing Washington Center
01:50PM 38.3575 -78.3906 272° West 388 447 20,000  Level Washington Center
01:51PM 38.3561 -78.5414 269° West 413 475 20,000  Level Washington Center
01:52PM 38.3567 -78.6844 270° West 413 475 20,000  Level Washington Center
01:53PM 38.3550 -78.8247 269° West 413 475 20,000  Level Washington Center
01:54PM 38.3550 -78.9703 270° West 413 475 20,000  Level Washington Center
01:55PM 38.3550 -79.1186 270° West 419 482 20,000  Level Washington Center
01:56PM 38.3528 -79.2667 269° West 419 482 20,000 540 Level Washington Center
01:57PM 38.3497 -79.4256 269° West 419 482 21,100 1,020 Climbing Washington Center
01:58PM 38.3469 -79.5736 269° West 419 482 22,100 960 Climbing Washington Center
01:59PM 38.3442 -79.7164 269° West 419 482 23,100 960 Climbing Washington Center
02:00PM 38.3481 -79.8489 272° West 419 482 24,100 900 Climbing Washington Center
02:01PM 38.3572 -79.9953 275° West 424 488 25,000 900 Climbing Washington Center
02:02PM 38.3642 -80.1439 273° West 424 488 26,000 240 Climbing Washington Center
02:05PM 38.3875 -80.5042 275° West 446 513 26,000  Level Indianapolis Center
02:06PM 38.3978 -80.6644 275° West 452 520 26,000  Level Indianapolis Center
02:07PM 38.4072 -80.8261 274° West 457 526 26,000  Level Indianapolis Center
02:08PM 38.4186 -81.0181 274° West 453 521 26,000  Level Indianapolis Center
02:09PM 38.4278 -81.1783 274° West 450 518 26,000  Level Indianapolis Center
02:10PM 38.4358 -81.3394 274° West 450 518 26,000  Level Indianapolis Center
02:11PM 38.4450 -81.5028 274° West 455 524 26,000  Level Indianapolis Center
02:12PM 38.4539 -81.6653 274° West 453 521 26,000  Level Indianapolis Center
02:13PM 38.4617 -81.8258 274° West 449 517 26,000  Level Indianapolis Center
02:14PM 38.4694 -81.9853 274° West 448 516 26,000  Level Indianapolis Center
02:15PM 38.4778 -82.1453 274° West 450 518 26,000  Level Indianapolis Center
02:16PM 38.4842 -82.3039 273° West 447 514 26,000  Level Indianapolis Center
02:17PM 38.4917 -82.4619 274° West 446 513 26,000  Level Indianapolis Center
02:18PM 38.4981 -82.6319 273° West 446 513 26,000  Level Indianapolis Center
02:19PM 38.5047 -82.7892 273° West 445 512 26,000  Level Indianapolis Center
02:20PM 38.5119 -82.9469 273° West 445 512 26,000  Level Indianapolis Center
02:21PM 38.5172 -83.1042 273° West 443 510 26,000  Level Indianapolis Center
02:22PM 38.5247 -83.2881 273° West 444 511 26,000  Level Indianapolis Center
02:23PM 38.5294 -83.4461 272° West 445 512 26,000  Level Indianapolis Center
02:24PM 38.5361 -83.6022 273° West 443 510 26,000  Level Indianapolis Center
02:25PM 38.5408 -83.7603 272° West 444 511 26,000  Level Indianapolis Center
02:26PM 38.5464 -83.9164 273° West 442 509 26,000  Level Indianapolis Center
02:27PM 38.5511 -84.0733 272° West 442 509 26,000  Level Indianapolis Center
02:28PM 38.5550 -84.2300 272° West 443 510 26,000 -180 Level Indianapolis Center
02:30PM 38.5592 -84.4131 272° West 443 510 25,700 -360 Descending Indianapolis Center
02:31PM 38.5647 -84.5636 273° West 426 490 25,300 -720 Descending Indianapolis Center
02:32PM 38.5686 -84.7053 272° West 402 463 24,300 -720 Descending Indianapolis Center
02:33PM 38.5717 -84.8522 272° West 414 476 23,900 -660 Descending Indianapolis Center
02:34PM 38.6222 -84.9844 296° West 425 489 23,000 -480 Descending Indianapolis Center
02:35PM 38.6942 -85.0964 309° West 423 487 23,000 -840 Level Indianapolis Center
02:36PM 38.7678 -85.2156 308° West 425 489 21,400 -1,980 Descending Indianapolis Center
02:37PM 38.8578 -85.3564 309° West 424 488 19,000 -2,220 Descending Indianapolis Center
02:38PM 38.9256 -85.4658 309° West 398 458 16,900 -2,040 Descending Indianapolis Center
02:39PM 38.9925 -85.5761 308° West 393 452 14,900 -1,440 Descending Indianapolis Center
02:40PM 39.0633 -85.6864 310° West 396 456 14,000 -1,200 Descending Indianapolis Center
02:41PM 39.1658 -85.7406 338° Northwest 410 472 12,500 -1,500 Descending Indianapolis Center
02:42PM 39.2772 -85.7603 352° North 411 473 11,000 -1,260 Descending Indianapolis Center
02:43PM 39.3600 -85.8256 329° Northwest 358 412 10,000 -540 Descending Indianapolis Center
02:44PM 39.4314 -85.9081 318° Northwest 348 400 10,000  Level Indianapolis Center
02:45PM 39.5019 -85.9922 317° Northwest 346 398 10,000 -960 Level Indianapolis Center
02:46PM 39.5681 -86.0736 317° Northwest 308 354 8,100 -1,500 Descending Indianapolis Center
02:47PM 39.6194 -86.1339 318° Northwest 275 316 7,000 -1,080 Descending Indianapolis Center
02:48PM 39.6833 -86.1500 349° North 299 344 6,200 -1,320 Descending Indianapolis TRACON
02:49PM 39.7500 -86.1167 21° North 291 335 4,700 -1,140 Descending Indianapolis TRACON
02:50PM 39.8000 -86.0667 38° Northeast 254 292 4,100 -840 Descending Indianapolis TRACON
02:51PM 39.8167 -86.1333 288° West 217 250 3,200 -720 Descending Indianapolis TRACON
02:52PM 39.8000 -86.1833 247° West 166 191 2,700 -600 Descending Indianapolis TRACON
02:53PM 39.7667 -86.2167 218° Southwest 152 175 2,100 -780 Descending Indianapolis TRACON
02:54PM 39.7333 -86.2667 229° Southwest 144 166 1,200 -840 Descending Indianapolis TRACON
02:56PM 39.7167 -86.2833 229° Southwest  Level FlightAware Approximate